Time;durP1;ratioP1;P1;durP2;ratioP2;P2;SDS_P1;SDS_P2;PMS_P1;PMS_P2;Temp;Humidity;BMP_temperature;BMP_pressure;BME280_temperature;BME280_humidity;BME280_pressure;Samples;Min_cycle;Max_cycle;Signal;HPM_P1;HPM_P2
2023/01/07 00:00:09;;;;;;;64.03;36.20;;;;;;;-0.48;100.00;93872.16;5076445;28;20048;-70
2023/01/07 00:02:35;;;;;;;77.70;38.30;;;;;;;-0.58;100.00;93862.81;5091506;28;20133;-70
2023/01/07 00:05:02;;;;;;;66.85;35.53;;;;;;;-1.01;100.00;93830.97;5091355;28;20457;-71
2023/01/07 00:07:29;;;;;;;65.90;33.00;;;;;;;-0.82;100.00;93853.78;5091735;28;20044;-71
2023/01/07 00:09:55;;;;;;;57.20;29.00;;;;;;;-0.73;100.00;93864.88;5091414;28;20503;-70
2023/01/07 00:12:23;;;;;;;65.63;35.03;;;;;;;-0.70;100.00;93859.56;5091573;28;20044;-70
2023/01/07 00:14:50;;;;;;;49.13;28.15;;;;;;;-0.70;100.00;93862.09;5091606;28;20097;-70
2023/01/07 00:17:17;;;;;;;44.65;25.83;;;;;;;-0.72;100.00;93848.81;5091453;28;20048;-70
2023/01/07 00:19:43;;;;;;;46.20;27.20;;;;;;;-0.57;100.00;93856.03;5091317;28;20089;-70
2023/01/07 00:22:10;;;;;;;45.42;26.40;;;;;;;-0.54;100.00;93864.16;5091257;28;20044;-70
2023/01/07 00:24:37;;;;;;;38.50;23.70;;;;;;;-0.60;100.00;93858.81;5091354;28;20036;-71
2023/01/07 00:27:04;;;;;;;38.15;22.73;;;;;;;-0.51;100.00;93869.91;5090975;28;20044;-71
2023/01/07 00:29:32;;;;;;;39.38;23.10;;;;;;;-0.47;100.00;93874.56;5091413;28;20044;-71
2023/01/07 00:31:58;;;;;;;37.70;21.98;;;;;;;-0.47;100.00;93859.41;5091201;28;20044;-71
2023/01/07 00:34:25;;;;;;;39.80;21.52;;;;;;;-0.50;100.00;93852.09;5090767;28;20081;-71
2023/01/07 00:37:16;;;;;;;39.42;21.20;;;;;;;-0.41;100.00;93866.47;5091174;28;20480;-71
2023/01/07 00:39:38;;;;;;;35.15;21.85;;;;;;;-0.47;100.00;93868.72;5090579;28;20079;-71
2023/01/07 00:44:51;;;;;;;34.30;18.92;;;;;;;-0.52;100.00;93859.00;5091004;28;20051;-71
2023/01/07 00:47:17;;;;;;;31.70;17.52;;;;;;;-0.45;100.00;93869.38;5090581;28;20040;-72
2023/01/07 00:49:45;;;;;;;26.42;15.25;;;;;;;-0.47;100.00;93871.25;5090747;28;20048;-71
2023/01/07 00:52:12;;;;;;;23.58;11.90;;;;;;;-0.55;100.00;93870.13;5090780;28;20182;-70
2023/01/07 00:54:39;;;;;;;19.20;11.20;;;;;;;-0.80;100.00;93836.00;5090417;28;20048;-70
2023/01/07 00:57:05;;;;;;;14.52;9.07;;;;;;;-0.67;100.00;93868.59;5090316;28;20078;-71
2023/01/07 00:59:32;;;;;;;18.88;10.52;;;;;;;-0.73;100.00;93871.63;5090711;28;20040;-70
2023/01/07 01:02:00;;;;;;;19.40;10.45;;;;;;;-0.85;100.00;93870.88;5090368;28;20040;-71
2023/01/07 01:04:27;;;;;;;20.35;12.82;;;;;;;-0.88;100.00;93876.19;5090408;28;20040;-71
2023/01/07 01:06:54;;;;;;;24.52;15.00;;;;;;;-0.85;100.00;93874.22;5090692;28;20085;-71
2023/01/07 01:09:21;;;;;;;31.52;17.10;;;;;;;-0.96;100.00;93881.84;5090517;28;20044;-70
2023/01/07 01:11:47;;;;;;;50.65;26.08;;;;;;;-1.11;100.00;93871.25;5090263;28;20097;-71
2023/01/07 01:14:14;;;;;;;67.63;31.13;;;;;;;-1.07;100.00;93875.13;5090379;28;20052;-71
2023/01/07 01:16:41;;;;;;;46.03;22.65;;;;;;;-1.13;100.00;93881.47;5090377;28;20521;-71
2023/01/07 01:19:10;;;;;;;33.88;22.30;;;;;;;-1.17;100.00;93859.94;5090227;28;20052;-71
2023/01/07 01:21:36;;;;;;;95.57;53.67;;;;;;;-1.02;100.00;93882.34;5089981;28;20040;-71
2023/01/07 01:24:03;;;;;;;55.63;30.85;;;;;;;-0.89;100.00;93888.00;5089834;28;20052;-71
2023/01/07 01:26:30;;;;;;;41.28;22.45;;;;;;;-0.87;100.00;93875.25;5090051;28;20040;-70
2023/01/07 01:28:57;;;;;;;30.90;18.48;;;;;;;-0.74;100.00;93883.44;5090102;28;20097;-70
2023/01/07 01:31:24;;;;;;;32.40;17.77;;;;;;;-0.70;100.00;93882.28;5089746;28;20478;-70
2023/01/07 01:33:53;;;;;;;26.67;15.07;;;;;;;-0.65;100.00;93881.09;5089897;28;20040;-70
2023/01/07 01:36:22;;;;;;;25.63;17.67;;;;;;;-0.67;100.00;93878.69;5090100;28;20044;-70
2023/01/07 01:38:49;;;;;;;32.00;17.88;;;;;;;-0.61;100.00;93882.47;5089891;28;20129;-71
2023/01/07 01:41:16;;;;;;;28.42;18.08;;;;;;;-0.57;100.00;93884.59;5089851;28;20048;-71
2023/01/07 01:43:43;;;;;;;30.65;17.77;;;;;;;-0.54;100.00;93871.72;5089715;28;20048;-71
2023/01/07 01:46:14;;;;;;;29.92;18.15;;;;;;;-0.37;100.00;93877.13;5089563;28;20044;-71
2023/01/07 01:48:46;;;;;;;32.03;19.67;;;;;;;-0.33;100.00;93881.00;5089502;28;20097;-71
2023/01/07 01:51:16;;;;;;;33.97;19.85;;;;;;;-0.30;100.00;93887.53;5089376;28;20048;-71
2023/01/07 01:53:44;;;;;;;33.30;19.90;;;;;;;-0.20;100.00;93887.56;5089561;28;20089;-71
2023/01/07 01:56:15;;;;;;;30.58;19.92;;;;;;;-0.23;100.00;93863.34;5089094;28;20044;-71
2023/01/07 01:58:47;;;;;;;34.15;20.13;;;;;;;-0.11;100.00;93865.78;5089436;28;20043;-70
2023/01/07 02:01:14;;;;;;;34.40;21.23;;;;;;;-0.11;100.00;93864.06;5089409;28;20048;-70
2023/01/07 02:03:41;;;;;;;34.28;21.45;;;;;;;-0.02;100.00;93870.09;5089463;28;20704;-70
2023/01/07 02:06:18;;;;;;;35.10;21.55;;;;;;;0.01;100.00;93866.50;5089294;28;20051;-70
2023/01/07 02:08:46;;;;;;;36.28;23.23;;;;;;;0.03;100.00;93865.44;5088818;28;20443;-70
2023/01/07 02:11:27;;;;;;;36.22;21.98;;;;;;;-0.02;100.00;93860.78;5089500;28;20113;-70
2023/01/07 02:14:09;;;;;;;32.15;21.52;;;;;;;-0.10;100.00;93865.66;5089257;28;20097;-70
2023/01/07 02:16:43;;;;;;;31.17;21.83;;;;;;;-0.07;100.00;93867.13;5089247;28;20097;-70
2023/01/07 02:19:52;;;;;;;42.03;25.00;;;;;;;-0.07;100.00;93852.00;5088967;28;20070;-70
2023/01/07 02:22:36;;;;;;;32.08;19.88;;;;;;;0.00;100.00;93855.63;5049999;28;20121;-70
2023/01/07 02:25:29;;;;;;;28.55;18.27;;;;;;;-0.04;100.00;93847.47;5089309;28;20051;-70
2023/01/07 02:28:25;;;;;;;28.05;17.90;;;;;;;0.10;100.00;93856.41;5088846;28;20051;-70
2023/01/07 02:31:18;;;;;;;22.65;13.45;;;;;;;0.12;100.00;93853.78;5089131;28;20040;-70
2023/01/07 02:33:55;;;;;;;19.65;11.23;;;;;;;0.10;100.00;93853.88;5088988;28;20044;-70
2023/01/07 02:36:45;;;;;;;19.20;11.88;;;;;;;0.14;100.00;93851.94;5089154;28;20040;-70
2023/01/07 02:39:38;;;;;;;17.35;10.60;;;;;;;-0.09;100.00;93816.75;5088990;28;20105;-70
2023/01/07 02:42:13;;;;;;;16.02;10.13;;;;;;;0.11;100.00;93849.66;5088494;28;20492;-70
2023/01/07 02:44:45;;;;;;;14.23;9.13;;;;;;;0.10;100.00;93851.38;5088566;28;20054;-70
2023/01/07 02:47:16;;;;;;;15.07;9.98;;;;;;;-0.09;100.00;93821.03;5088666;28;20458;-70
2023/01/07 02:49:47;;;;;;;11.20;7.80;;;;;;;-0.01;100.00;93847.22;5088777;28;20447;-70
2023/01/07 02:52:17;;;;;;;14.48;8.48;;;;;;;-0.24;100.00;93848.34;5088531;28;20415;-70
2023/01/07 02:54:46;;;;;;;17.60;10.57;;;;;;;-0.40;100.00;93852.16;5086244;28;20052;-70
2023/01/07 02:57:35;;;;;;;41.20;22.48;;;;;;;-0.45;100.00;93846.66;5088531;28;20044;-70
2023/01/07 03:00:29;;;;;;;31.90;19.50;;;;;;;-0.48;100.00;93854.47;5088522;28;20117;-70
2023/01/07 03:03:14;;;;;;;48.35;33.55;;;;;;;-0.41;100.00;93853.06;5088742;28;20044;-70
2023/01/07 03:05:51;;;;;;;37.60;26.08;;;;;;;-0.35;100.00;93845.00;5088454;28;20112;-70
2023/01/07 03:08:33;;;;;;;34.10;23.10;;;;;;;-0.39;100.00;93825.16;5088309;28;20048;-70
2023/01/07 03:11:02;;;;;;;27.73;15.65;;;;;;;-0.34;100.00;93823.06;5088367;28;20048;-70
2023/01/07 03:13:36;;;;;;;23.30;15.23;;;;;;;-0.27;100.00;93846.88;5088256;28;20052;-70
2023/01/07 03:16:08;;;;;;;20.35;14.02;;;;;;;-0.43;100.00;93842.28;5088544;28;20052;-70
2023/01/07 03:18:40;;;;;;;31.58;17.73;;;;;;;-0.58;100.00;93834.25;5088552;28;20071;-70
2023/01/07 03:21:13;;;;;;;29.90;16.92;;;;;;;-0.47;100.00;93856.09;5092666;28;20044;-70
2023/01/07 03:23:43;;;;;;;39.83;20.40;;;;;;;-0.43;100.00;93854.91;5092213;28;20322;-70
2023/01/07 03:26:12;;;;;;;35.15;19.65;;;;;;;-0.34;100.00;93845.78;5092318;28;20047;-70
2023/01/07 03:28:42;;;;;;;36.92;20.88;;;;;;;-0.29;100.00;93858.81;5092301;28;20081;-70
2023/01/07 03:31:12;;;;;;;36.08;23.75;;;;;;;-0.23;100.00;93848.22;5092224;28;20176;-70
2023/01/07 03:33:44;;;;;;;39.67;23.77;;;;;;;-0.23;100.00;93845.69;5092375;28;20420;-70
2023/01/07 03:36:16;;;;;;;39.55;23.23;;;;;;;-0.41;100.00;93812.69;5092220;28;20048;-70
2023/01/07 03:38:45;;;;;;;31.63;20.27;;;;;;;-0.19;100.00;93846.25;5091888;28;20556;-70
2023/01/07 03:42:38;;;;;;;30.65;18.30;;;;;;;-0.19;100.00;93848.78;5092045;28;20497;-70
2023/01/07 03:43:58;;;;;;;32.85;18.73;;;;;;;-0.22;100.00;93847.31;5091835;28;20048;-70
2023/01/07 03:46:25;;;;;;;30.98;17.83;;;;;;;-0.21;100.00;93843.03;5091864;28;20408;-70
2023/01/07 03:48:51;;;;;;;32.17;18.38;;;;;;;-0.24;100.00;93838.25;5091954;28;20090;-70
2023/01/07 03:51:19;;;;;;;26.65;17.50;;;;;;;-0.20;100.00;93849.69;5091693;28;20454;-70
2023/01/07 03:53:46;;;;;;;37.08;23.45;;;;;;;-0.27;100.00;93837.56;5092013;28;20101;-70
2023/01/07 03:56:13;;;;;;;38.72;25.35;;;;;;;-0.19;100.00;93847.03;5091968;28;20109;-71
2023/01/07 03:58:40;;;;;;;61.15;37.00;;;;;;;-0.25;100.00;93842.50;5091773;28;20474;-70
2023/01/07 04:01:07;;;;;;;54.15;31.92;;;;;;;-0.34;100.00;93849.09;5091946;28;20048;-70
2023/01/07 04:03:33;;;;;;;39.65;24.15;;;;;;;-0.46;100.00;93852.66;5091557;28;20044;-70
2023/01/07 04:06:00;;;;;;;33.80;22.13;;;;;;;-0.48;100.00;93855.28;5091702;28;20060;-70
2023/01/07 04:08:28;;;;;;;31.42;21.35;;;;;;;-0.47;100.00;93846.00;5091506;28;20555;-70
2023/01/07 04:10:55;;;;;;;28.27;19.65;;;;;;;-0.57;100.00;93858.56;5091802;28;20059;-70
2023/01/07 04:13:22;;;;;;;29.60;22.48;;;;;;;-0.71;100.00;93850.41;5091241;28;20048;-70
2023/01/07 04:15:49;;;;;;;32.20;22.77;;;;;;;-0.91;100.00;93857.06;5091763;28;20085;-70
2023/01/07 04:18:15;;;;;;;36.10;25.92;;;;;;;-0.90;100.00;93862.88;5092270;28;20113;-70
2023/01/07 04:20:45;;;;;;;35.33;24.88;;;;;;;-0.86;100.00;93861.72;5091286;28;20048;-70
2023/01/07 04:23:12;;;;;;;34.20;24.88;;;;;;;-0.85;100.00;93864.13;5091842;28;20051;-70
2023/01/07 04:25:40;;;;;;;35.63;27.63;;;;;;;-1.00;100.00;93852.75;5091610;28;20093;-70
2023/01/07 04:28:07;;;;;;;31.20;22.77;;;;;;;-0.91;100.00;93862.09;5091897;28;20415;-70
2023/01/07 04:30:34;;;;;;;32.47;21.35;;;;;;;-0.85;100.00;93864.13;5090987;28;20040;-70
2023/01/07 04:33:01;;;;;;;30.92;20.73;;;;;;;-0.82;100.00;93856.31;5091370;28;20098;-70
2023/01/07 04:35:27;;;;;;;37.05;22.05;;;;;;;-0.78;100.00;93856.06;5078425;28;20039;-70
2023/01/07 04:37:54;;;;;;;64.03;32.85;;;;;;;-0.73;100.00;93861.53;5091407;28;20097;-70
2023/01/07 04:40:21;;;;;;;65.50;33.92;;;;;;;-0.69;100.00;93863.69;5091550;28;20117;-70
2023/01/07 04:42:49;;;;;;;36.25;23.45;;;;;;;-0.68;100.00;93872.84;5091374;28;20121;-70
2023/01/07 04:45:15;;;;;;;35.97;23.42;;;;;;;-0.69;100.00;93861.16;5089783;28;20051;-71
2023/01/07 04:47:42;;;;;;;34.08;22.63;;;;;;;-0.68;100.00;93867.78;5089914;28;20048;-70
2023/01/07 04:50:09;;;;;;;31.17;21.58;;;;;;;-0.68;100.00;93874.59;5090604;28;20051;-71
2023/01/07 04:52:36;;;;;;;33.92;23.33;;;;;;;-1.01;100.00;93838.53;5078105;28;20040;-71
2023/01/07 04:55:03;;;;;;;37.80;24.20;;;;;;;-0.72;100.00;93880.78;5090737;28;20055;-70
2023/01/07 04:57:30;;;;;;;36.60;24.27;;;;;;;-0.86;100.00;93867.59;5088274;28;20117;-71
2023/01/07 04:59:58;;;;;;;35.40;24.25;;;;;;;-0.83;100.00;93874.88;5091081;28;20441;-70
2023/01/07 05:02:25;;;;;;;38.17;24.67;;;;;;;-0.85;100.00;93875.94;5088079;28;20044;-70
2023/01/07 05:04:52;;;;;;;44.70;27.70;;;;;;;-0.88;100.00;93876.19;5086811;28;20417;-71
2023/01/07 05:07:18;;;;;;;43.47;25.73;;;;;;;-0.90;100.00;93875.50;5078057;28;20048;-71
2023/01/07 05:09:46;;;;;;;45.13;28.35;;;;;;;-0.98;100.00;93866.03;5070089;28;20045;-70
2023/01/07 05:12:12;;;;;;;58.38;31.52;;;;;;;-0.96;100.00;93876.81;5070215;28;20048;-72
2023/01/07 05:14:39;;;;;;;57.15;33.92;;;;;;;-0.95;100.00;93884.25;5070337;28;20097;-73
2023/01/07 05:17:07;;;;;;;50.80;30.95;;;;;;;-0.97;100.00;93880.25;5072964;28;20040;-70
2023/01/07 05:19:34;;;;;;;55.92;30.85;;;;;;;-1.19;100.00;93851.69;5082161;28;20098;-72
2023/01/07 05:22:01;;;;;;;60.33;33.72;;;;;;;-1.03;100.00;93873.19;5069998;28;20389;-71
2023/01/07 05:24:27;;;;;;;63.38;35.40;;;;;;;-1.03;100.00;93883.25;5069665;28;20045;-71
2023/01/07 05:26:54;;;;;;;61.17;37.10;;;;;;;-1.06;100.00;93876.75;5072660;28;20117;-72
2023/01/07 05:29:21;;;;;;;69.75;38.28;;;;;;;-1.00;100.00;93883.81;5069599;28;20056;-71
2023/01/07 05:31:47;;;;;;;73.47;38.83;;;;;;;-0.97;100.00;93885.28;5069892;28;20106;-72
2023/01/07 05:34:15;;;;;;;76.70;41.95;;;;;;;-1.08;100.00;93891.19;5074548;28;20389;-71
2023/01/07 05:36:42;;;;;;;72.65;37.63;;;;;;;-1.25;100.00;93892.50;5079362;28;20056;-71
2023/01/07 05:39:09;;;;;;;76.78;41.97;;;;;;;-1.19;100.00;93892.03;5090360;28;20097;-71
2023/01/07 05:41:36;;;;;;;77.07;42.00;;;;;;;-1.13;100.00;93895.78;5088788;28;20044;-71
2023/01/07 05:44:03;;;;;;;82.05;46.08;;;;;;;-1.23;100.00;93875.53;5089958;28;20105;-71
2023/01/07 05:46:29;;;;;;;80.63;47.70;;;;;;;-1.16;100.00;93891.00;5090322;28;20097;-71
2023/01/07 05:48:56;;;;;;;92.85;50.40;;;;;;;-1.23;100.00;93895.72;5089833;28;20153;-71
2023/01/07 05:51:24;;;;;;;87.05;51.17;;;;;;;-1.31;100.00;93896.31;5089832;28;20109;-71
2023/01/07 05:53:51;;;;;;;96.32;50.92;;;;;;;-1.30;100.00;93900.41;5089978;28;20044;-71
2023/01/07 05:56:17;;;;;;;84.97;49.20;;;;;;;-1.19;100.00;93898.78;5090069;28;20105;-72
2023/01/07 05:58:45;;;;;;;113.53;56.97;;;;;;;-1.15;100.00;93897.63;5087987;28;20492;-72
2023/01/07 06:01:12;;;;;;;102.43;52.85;;;;;;;-1.15;100.00;93900.16;5089603;28;20093;-71
2023/01/07 06:03:39;;;;;;;91.32;49.38;;;;;;;-1.21;100.00;93893.84;5089759;28;20043;-71
2023/01/07 06:06:06;;;;;;;99.45;50.58;;;;;;;-1.14;100.00;93891.66;5089477;28;20040;-71
2023/01/07 06:08:35;;;;;;;95.43;48.03;;;;;;;-1.09;100.00;93895.44;5089479;28;20044;-71
2023/01/07 06:11:02;;;;;;;102.28;48.45;;;;;;;-1.10;100.00;93898.84;5076001;28;20048;-71
2023/01/07 06:13:29;;;;;;;106.22;49.90;;;;;;;-1.08;100.00;93899.56;5089894;28;20048;-71
2023/01/07 06:15:59;;;;;;;97.82;48.55;;;;;;;-1.09;100.00;93892.09;5089853;28;20100;-71
2023/01/07 06:18:26;;;;;;;100.95;53.05;;;;;;;-1.11;100.00;93889.69;5089904;28;20463;-71
2023/01/07 06:20:53;;;;;;;95.90;49.55;;;;;;;-1.01;100.00;93904.09;5089738;28;20044;-70
2023/01/07 06:23:19;;;;;;;114.05;63.00;;;;;;;-1.06;100.00;93908.72;5089223;28;20043;-71
2023/01/07 06:25:47;;;;;;;108.90;60.40;;;;;;;-1.06;100.00;93908.72;5089808;28;20048;-71
2023/01/07 06:28:14;;;;;;;106.60;58.50;;;;;;;-1.04;100.00;93911.91;5089291;28;20048;-71
2023/01/07 06:30:41;;;;;;;101.03;56.83;;;;;;;-1.08;100.00;93896.22;5089501;28;20477;-71
2023/01/07 06:33:08;;;;;;;109.47;61.22;;;;;;;-0.95;100.00;93911.19;5089312;28;20081;-71
2023/01/07 06:35:34;;;;;;;109.25;57.17;;;;;;;-0.95;100.00;93906.94;5089305;28;20048;-72
2023/01/07 06:38:01;;;;;;;105.53;55.03;;;;;;;-0.89;100.00;93899.81;5089181;28;20343;-72
2023/01/07 06:40:37;;;;;;;111.63;57.08;;;;;;;-1.13;100.00;93873.09;5089176;28;20048;-72
2023/01/07 06:43:05;;;;;;;;;;;;;;;-0.82;100.00;93914.31;5089360;28;20052;-72
2023/01/07 06:45:31;;;;;;;99.07;56.90;;;;;;;-0.83;100.00;93909.41;5088319;28;19924;-72
2023/01/07 06:47:58;;;;;;;98.93;55.35;;;;;;;-0.77;100.00;93910.63;5089244;28;20097;-72
2023/01/07 06:50:25;;;;;;;97.15;55.15;;;;;;;-0.69;100.00;93910.84;5088845;28;20047;-71
2023/01/07 06:52:52;;;;;;;92.45;49.47;;;;;;;-0.66;100.00;93908.06;5088874;28;20040;-71
2023/01/07 06:55:19;;;;;;;87.65;49.22;;;;;;;-0.65;100.00;93911.38;5084358;28;20462;-71
2023/01/07 06:57:45;;;;;;;86.13;48.63;;;;;;;-0.59;100.00;93914.22;5086534;28;20044;-71
2023/01/07 07:00:14;;;;;;;91.65;51.40;;;;;;;-0.52;100.00;93917.03;5089139;28;20055;-71
2023/01/07 07:02:41;;;;;;;82.55;48.47;;;;;;;-0.43;100.00;93923.88;5088450;28;20581;-71
2023/01/07 07:05:08;;;;;;;94.00;53.88;;;;;;;-0.37;100.00;93922.56;5088846;28;20055;-71
2023/01/07 07:07:35;;;;;;;91.50;53.25;;;;;;;-0.29;100.00;93922.75;5088790;28;20496;-71
2023/01/07 07:10:06;;;;;;;106.88;60.08;;;;;;;-0.22;100.00;93915.47;5088633;28;20052;-71
2023/01/07 07:12:32;;;;;;;132.05;75.57;;;;;;;-0.14;100.00;93919.88;5088693;28;20054;-71
2023/01/07 07:14:59;;;;;;;140.80;83.13;;;;;;;-0.23;100.00;93906.28;5088753;28;20557;-71
2023/01/07 07:17:27;;;;;;;157.02;89.15;;;;;;;-0.06;100.00;93930.16;5088774;28;20052;-72
2023/01/07 07:19:54;;;;;;;174.30;98.53;;;;;;;0.03;100.00;93920.22;5088542;28;20048;-71
2023/01/07 07:22:21;;;;;;;147.13;83.40;;;;;;;0.11;100.00;93923.72;5088727;28;20048;-72
2023/01/07 07:24:47;;;;;;;136.27;75.65;;;;;;;0.18;100.00;93913.88;5088657;28;20048;-72
2023/01/07 07:27:14;;;;;;;111.55;62.67;;;;;;;0.29;100.00;93918.06;5088645;28;20097;-72
2023/01/07 07:29:41;;;;;;;106.97;55.80;;;;;;;0.29;100.00;93913.00;5088566;28;20632;-72
2023/01/07 07:32:08;;;;;;;101.10;51.53;;;;;;;0.45;100.00;93919.25;5088599;28;20044;-72
2023/01/07 07:34:36;;;;;;;86.72;48.63;;;;;;;0.59;100.00;93913.03;5088611;28;20040;-72
2023/01/07 07:37:03;;;;;;;72.13;37.83;;;;;;;0.50;100.00;93910.38;5088190;28;20044;-71
2023/01/07 07:39:30;;;;;;;75.85;43.47;;;;;;;0.61;100.00;93908.66;5088767;28;20044;-71
2023/01/07 07:41:56;;;;;;;80.10;41.45;;;;;;;0.58;100.00;93886.97;5088481;28;20044;-71
2023/01/07 07:44:23;;;;;;;79.88;42.50;;;;;;;0.76;100.00;93902.31;5073451;28;20382;-72
2023/01/07 07:46:50;;;;;;;78.55;44.55;;;;;;;0.88;100.00;93913.06;5082267;28;20056;-71
2023/01/07 07:49:16;;;;;;;74.28;41.83;;;;;;;0.97;100.00;93908.94;5088745;28;20043;-71
2023/01/07 07:51:45;;;;;;;78.07;42.75;;;;;;;1.08;100.00;93914.81;5088135;28;20089;-71
2023/01/07 07:54:11;;;;;;;79.95;42.33;;;;;;;1.13;100.00;93910.97;5088501;28;20098;-72
2023/01/07 07:56:38;;;;;;;76.20;43.15;;;;;;;1.24;100.00;93912.53;5087512;28;20040;-72
2023/01/07 07:59:05;;;;;;;91.03;48.33;;;;;;;1.33;100.00;93919.34;5086608;28;20446;-71
2023/01/07 08:01:31;;;;;;;90.82;52.83;;;;;;;1.41;100.00;93917.84;5088398;28;20048;-71
2023/01/07 08:03:58;;;;;;;96.03;54.72;;;;;;;1.48;100.00;93913.06;5087943;28;20454;-71
2023/01/07 08:06:25;;;;;;;105.25;57.00;;;;;;;1.48;100.00;93911.31;5084820;28;20089;-71
2023/01/07 08:08:53;;;;;;;108.60;58.30;;;;;;;1.48;100.00;93913.84;5090666;28;20044;-71
2023/01/07 08:11:20;;;;;;;132.93;72.40;;;;;;;1.50;100.00;93908.63;5092158;28;20040;-71
2023/01/07 08:13:46;;;;;;;122.30;67.72;;;;;;;1.31;100.00;93908.53;5092072;28;20040;-71
2023/01/07 08:16:13;;;;;;;129.30;68.22;;;;;;;1.40;100.00;93911.19;5092047;28;20047;-71
2023/01/07 08:18:40;;;;;;;111.20;64.10;;;;;;;1.37;100.00;93906.38;5091765;28;20052;-71
2023/01/07 08:21:06;;;;;;;111.93;60.33;;;;;;;1.31;100.00;93908.53;5092062;28;20044;-71
2023/01/07 08:23:34;;;;;;;108.18;58.15;;;;;;;1.36;100.00;93900.53;5091972;28;20123;-71
2023/01/07 08:26:02;;;;;;;113.10;60.78;;;;;;;1.40;100.00;93909.47;5091586;28;20500;-72
2023/01/07 08:28:29;;;;;;;101.85;53.47;;;;;;;1.52;100.00;93904.25;5091887;28;20542;-71
2023/01/07 08:30:56;;;;;;;104.25;55.00;;;;;;;1.48;100.00;93892.78;5091265;28;20086;-71
2023/01/07 08:33:26;;;;;;;99.10;50.88;;;;;;;1.70;100.00;93902.59;5091238;28;20067;-71
2023/01/07 08:36:05;;;;;;;104.70;51.90;;;;;;;1.53;100.00;93858.53;5091694;28;20116;-71
2023/01/07 08:38:32;;;;;;;91.68;50.17;;;;;;;1.92;100.00;93902.38;5091432;28;20086;-71
2023/01/07 08:40:59;;;;;;;129.75;62.08;;;;;;;1.99;100.00;93880.66;5091552;28;20052;-71
2023/01/07 08:43:27;;;;;;;121.22;61.88;;;;;;;2.18;100.00;93892.41;5092228;28;20105;-71
2023/01/07 08:45:54;;;;;;;137.32;66.50;;;;;;;2.09;100.00;93894.03;5091392;28;20048;-71
2023/01/07 08:48:21;;;;;;;135.77;67.55;;;;;;;2.04;100.00;93877.69;5090827;28;20466;-71
2023/01/07 08:50:50;;;;;;;131.50;67.07;;;;;;;2.10;100.00;93877.94;5091279;28;20044;-71
2023/01/07 08:53:18;;;;;;;140.00;70.53;;;;;;;2.33;100.00;93897.81;5091402;28;20411;-71
2023/01/07 08:55:44;;;;;;;152.40;69.88;;;;;;;2.30;100.00;93892.25;5090443;28;20565;-71
2023/01/07 08:58:13;;;;;;;146.48;70.45;;;;;;;2.37;100.00;93883.13;5091294;28;20040;-71
2023/01/07 09:00:42;;;;;;;154.57;73.47;;;;;;;2.35;100.00;93884.97;5090642;28;20105;-71
2023/01/07 09:03:09;;;;;;;134.68;63.97;;;;;;;2.34;100.00;93883.41;5091135;28;20090;-71
2023/01/07 09:05:37;;;;;;;104.15;47.63;;;;;;;2.43;100.00;93884.28;5086122;28;20052;-71
2023/01/07 09:08:04;;;;;;;81.38;37.83;;;;;;;2.31;100.00;93869.25;5090657;28;20161;-71
2023/01/07 09:10:31;;;;;;;71.85;35.28;;;;;;;2.45;100.00;93879.88;5090849;28;20052;-71
2023/01/07 09:12:58;;;;;;;70.40;35.28;;;;;;;2.53;100.00;93873.16;5091068;28;20036;-71
2023/01/07 09:15:24;;;;;;;71.55;35.13;;;;;;;2.73;100.00;93862.06;5090282;28;20622;-71
2023/01/07 09:17:52;;;;;;;75.85;35.60;;;;;;;2.90;100.00;93863.00;5090937;28;20047;-71
2023/01/07 09:20:19;;;;;;;78.15;36.13;;;;;;;2.93;100.00;93850.03;5090475;28;20044;-71
2023/01/07 09:22:47;;;;;;;82.72;33.30;;;;;;;3.10;100.00;93865.38;5090750;28;20036;-71
2023/01/07 09:25:14;;;;;;;70.30;32.35;;;;;;;3.16;100.00;93844.47;5090682;28;20048;-71
2023/01/07 09:27:42;;;;;;;69.18;32.50;;;;;;;3.29;100.00;93836.47;5087029;28;20041;-72
2023/01/07 09:30:09;;;;;;;71.07;31.75;;;;;;;3.58;100.00;93846.34;5070123;28;20485;-72
2023/01/07 09:32:36;;;;;;;73.75;32.33;;;;;;;3.67;100.00;93831.13;5069618;28;20048;-72
2023/01/07 09:35:05;;;;;;;74.60;34.05;;;;;;;3.85;100.00;93839.47;5085991;28;20044;-71
2023/01/07 09:37:32;;;;;;;64.25;28.38;;;;;;;3.87;100.00;93832.50;5090473;28;20040;-71
2023/01/07 09:39:59;;;;;;;59.78;27.23;;;;;;;3.96;100.00;93827.44;5089986;28;20725;-71
2023/01/07 09:42:36;;;;;;;52.25;22.17;;;;;;;4.09;100.00;93822.72;5090107;28;20121;-70
2023/01/07 09:45:11;;;;;;;50.78;22.02;;;;;;;4.26;100.00;93820.22;5087878;28;20109;-70
2023/01/07 09:47:43;;;;;;;63.20;23.30;;;;;;;4.31;100.00;93818.03;5090437;28;20046;-69
2023/01/07 09:50:19;;;;;;;56.88;21.95;;;;;;;4.43;100.00;93815.97;5089180;28;20048;-70
2023/01/07 09:52:52;;;;;;;47.03;21.70;;;;;;;4.41;100.00;93795.75;5072129;28;20072;-72
2023/01/07 09:55:25;;;;;;;49.13;20.33;;;;;;;4.28;100.00;93755.53;5072437;28;20055;-70
2023/01/07 09:57:53;;;;;;;39.53;17.30;;;;;;;4.78;100.00;93798.81;5069173;28;20056;-70
2023/01/07 10:00:24;;;;;;;40.08;18.55;;;;;;;4.94;100.00;93792.13;5069104;28;20045;-70
2023/01/07 10:03:06;;;;;;;40.75;17.92;;;;;;;5.05;100.00;93765.56;5069520;28;20135;-70
2023/01/07 10:05:46;;;;;;;31.88;16.58;;;;;;;5.33;100.00;93790.66;5069478;28;20382;-70
2023/01/07 10:08:28;;;;;;;34.15;15.27;;;;;;;5.36;100.00;93762.28;5068949;28;20071;-70
2023/01/07 10:11:03;;;;;;;33.38;14.82;;;;;;;5.65;100.00;93786.41;5070033;28;20055;-70
2023/01/07 10:13:45;;;;;;;28.08;12.23;;;;;;;5.87;100.00;93774.72;5090147;28;20135;-71
2023/01/07 10:16:19;;;;;;;25.90;10.60;;;;;;;5.93;100.00;93767.34;5089806;28;20040;-70
2023/01/07 10:18:54;;;;;;;25.02;10.88;;;;;;;6.13;100.00;93770.31;5089698;28;20106;-70
2023/01/07 10:21:27;;;;;;;16.70;7.35;;;;;;;6.06;100.00;93764.28;5084175;28;20475;-70
2023/01/07 10:24:02;;;;;;;17.40;7.55;;;;;;;6.16;100.00;93759.78;5089711;28;20040;-69
2023/01/07 10:26:36;;;;;;;15.85;7.22;;;;;;;6.30;100.00;93760.00;5089657;28;20048;-69
2023/01/07 10:29:09;;;;;;;20.33;9.95;;;;;;;6.34;100.00;93741.63;5088754;28;20040;-69
2023/01/07 10:31:36;;;;;;;25.60;12.75;;;;;;;6.55;100.00;93761.44;5089652;28;20097;-69
2023/01/07 10:34:06;;;;;;;25.27;10.63;;;;;;;6.58;100.00;93755.19;5088923;28;20074;-69
2023/01/07 10:36:38;;;;;;;21.00;10.38;;;;;;;6.63;100.00;93758.00;5089173;28;20055;-69
2023/01/07 10:39:19;;;;;;;17.80;8.38;;;;;;;6.72;100.00;93750.31;5089281;28;20044;-69
2023/01/07 10:41:57;;;;;;;18.05;9.50;;;;;;;6.86;100.00;93752.09;5088822;28;20052;-69
2023/01/07 10:44:50;;;;;;;16.80;8.05;;;;;;;6.93;100.00;93741.97;5089115;28;20101;-70
2023/01/07 10:47:33;;;;;;;29.10;9.52;;;;;;;7.04;100.00;93746.66;5089461;28;20485;-69
2023/01/07 10:50:21;;;;;;;19.85;9.13;;;;;;;7.01;100.00;93721.47;5089363;28;20415;-69
2023/01/07 10:52:58;;;;;;;17.98;7.57;;;;;;;7.19;100.00;93736.44;5089348;28;20085;-69
2023/01/07 10:55:53;;;;;;;19.10;9.52;;;;;;;6.81;100.00;93670.13;5088750;28;20044;-69
2023/01/07 10:58:20;;;;;;;19.58;9.05;;;;;;;7.38;100.00;93719.03;5081200;28;20062;-69
2023/01/07 11:00:54;;;;;;;28.52;11.07;;;;;;;7.46;100.00;93713.03;5088794;28;20048;-69
2023/01/07 11:03:23;;;;;;;27.52;11.25;;;;;;;7.68;100.00;93716.44;5089391;28;20060;-69
2023/01/07 11:05:55;;;;;;;20.52;9.05;;;;;;;7.64;100.00;93719.53;5088895;28;20040;-69
2023/01/07 11:08:37;;;;;;;24.50;10.63;;;;;;;7.70;100.00;93700.91;5088865;28;20059;-69
2023/01/07 11:11:06;;;;;;;26.77;10.85;;;;;;;7.94;100.00;93710.03;5089460;28;20047;-69
2023/01/07 11:13:40;;;;;;;21.58;9.00;;;;;;;7.86;100.00;93707.56;5085563;28;20082;-70
2023/01/07 11:16:11;;;;;;;28.58;11.60;;;;;;;8.01;100.00;93707.56;5076134;28;20048;-69
2023/01/07 11:18:45;;;;;;;26.90;9.73;;;;;;;8.05;100.00;93703.63;5087956;28;20128;-69
2023/01/07 11:21:12;;;;;;;13.10;4.88;;;;;;;8.25;100.00;93706.38;5089035;28;20052;-69
2023/01/07 11:23:42;;;;;;;19.27;9.73;;;;;;;8.43;100.00;93697.50;5088838;28;20052;-69
2023/01/07 11:26:13;;;;;;;11.73;6.10;;;;;;;8.57;100.00;93695.09;5089112;28;20044;-70